createdAt,value
2023-02-07T00:01:38.773Z,17.25
2023-02-07T00:04:13.113Z,16.10
2023-02-07T00:06:47.066Z,14.68
2023-02-07T00:09:21.328Z,14.85
2023-02-07T00:14:27.721Z,14.38
2023-02-07T00:17:01.786Z,14.33
2023-02-07T00:19:36.393Z,15.13
2023-02-07T00:24:42.801Z,13.08
2023-02-07T00:27:17.281Z,13.00
2023-02-07T00:29:51.448Z,14.45
2023-02-07T00:32:25.388Z,14.23
2023-02-07T00:37:32.832Z,13.53
2023-02-07T00:40:07.366Z,14.00
2023-02-07T00:42:42.551Z,14.23
2023-02-07T00:45:16.470Z,14.15
2023-02-07T00:47:50.478Z,14.68
2023-02-07T00:52:57.364Z,14.93
2023-02-07T00:58:04.081Z,13.20
2023-02-07T01:00:38.661Z,13.38
2023-02-07T01:03:12.539Z,13.45
2023-02-07T01:05:47.406Z,13.20
2023-02-07T01:08:22.335Z,13.88
2023-02-07T01:10:57.296Z,12.53
2023-02-07T01:13:31.722Z,13.88
2023-02-07T01:16:06.334Z,14.28
2023-02-07T01:18:40.560Z,13.98
2023-02-07T01:21:23.881Z,15.28
2023-02-07T01:23:57.899Z,13.15
2023-02-07T01:29:04.824Z,13.93
2023-02-07T01:31:38.951Z,16.20
2023-02-07T01:34:14.682Z,15.25
2023-02-07T01:36:48.736Z,13.50
2023-02-07T01:39:22.880Z,14.83
2023-02-07T01:41:57.043Z,14.15
2023-02-07T01:44:35.546Z,14.00
2023-02-07T01:47:15.329Z,15.60
2023-02-07T01:49:52.024Z,14.30
2023-02-07T01:52:36.143Z,14.50
2023-02-07T01:55:16.664Z,14.83
2023-02-07T01:57:50.523Z,16.12
2023-02-07T02:00:24.880Z,13.98
2023-02-07T02:02:59.189Z,14.93
2023-02-07T02:05:34.039Z,14.43
2023-02-07T02:08:07.900Z,13.45
2023-02-07T02:11:02.917Z,13.93
2023-02-07T02:13:45.462Z,14.75
2023-02-07T02:16:39.677Z,14.30
2023-02-07T02:19:40.937Z,13.72
2023-02-07T02:22:57.590Z,12.47
2023-02-07T02:25:58.183Z,13.20
2023-02-07T02:29:09.832Z,13.50
2023-02-07T02:32:33.864Z,14.03
2023-02-07T02:35:20.937Z,14.25
2023-02-07T02:38:11.761Z,15.98
2023-02-07T02:41:01.935Z,15.48
2023-02-07T02:44:04.429Z,13.72
2023-02-07T02:46:40.416Z,13.43
2023-02-07T02:49:17.146Z,13.68
2023-02-07T02:51:54.947Z,15.80
2023-02-07T02:54:35.247Z,13.22
2023-02-07T02:57:51.390Z,12.35
2023-02-07T03:01:10.810Z,11.22
2023-02-07T03:04:04.801Z,13.13
2023-02-07T03:06:44.849Z,16.17
2023-02-07T03:09:35.582Z,12.82
2023-02-07T03:12:16.911Z,13.68
2023-02-07T03:15:09.274Z,13.00
2023-02-07T03:18:00.128Z,14.87
2023-02-07T03:20:41.696Z,13.78
2023-02-07T03:23:16.474Z,13.78
2023-02-07T03:25:52.209Z,16.87
2023-02-07T03:28:28.393Z,15.10
2023-02-07T03:31:03.966Z,13.83
2023-02-07T03:33:37.993Z,13.72
2023-02-07T03:36:23.809Z,14.30
2023-02-07T03:38:57.641Z,13.65
2023-02-07T03:41:47.843Z,14.68
2023-02-07T03:44:23.789Z,14.05
2023-02-07T03:46:58.159Z,14.70
2023-02-07T03:49:32.066Z,12.93
2023-02-07T03:52:06.105Z,15.30
2023-02-07T03:57:13.208Z,16.37
2023-02-07T03:59:47.753Z,17.40
2023-02-07T04:02:21.759Z,16.02
2023-02-07T04:04:55.578Z,16.48
2023-02-07T04:10:03.623Z,15.83
2023-02-07T04:12:37.960Z,15.00
2023-02-07T04:17:44.793Z,15.08
2023-02-07T04:20:19.349Z,14.55
2023-02-07T04:22:53.587Z,14.85
2023-02-07T04:25:27.947Z,14.05
2023-02-07T04:28:01.691Z,13.72
2023-02-07T04:30:35.880Z,14.00
2023-02-07T04:33:09.866Z,13.68
2023-02-07T04:35:43.706Z,13.03
2023-02-07T04:40:50.282Z,11.48
2023-02-07T04:45:57.049Z,16.35
2023-02-07T04:51:04.029Z,14.63
2023-02-07T04:56:10.765Z,16.12
2023-02-07T04:58:45.135Z,18.70
2023-02-07T05:01:19.086Z,19.57
2023-02-07T05:03:53.106Z,16.60
2023-02-07T05:06:27.401Z,18.73
2023-02-07T05:09:01.822Z,14.93
2023-02-07T05:14:08.376Z,14.90
2023-02-07T05:16:42.913Z,16.07
2023-02-07T05:21:50.143Z,13.98
2023-02-07T05:24:24.407Z,14.30
2023-02-07T05:26:58.201Z,15.03
2023-02-07T05:29:32.055Z,17.25
2023-02-07T05:32:24.922Z,16.17
2023-02-07T05:34:58.906Z,15.48
2023-02-07T05:37:32.776Z,14.63
2023-02-07T05:40:08.487Z,15.10
2023-02-07T05:42:42.616Z,15.63
2023-02-07T05:45:16.556Z,16.85
2023-02-07T05:47:52.022Z,18.30
2023-02-07T05:50:26.676Z,17.48
2023-02-07T05:53:02.504Z,14.87
2023-02-07T05:55:38.140Z,16.00
2023-02-07T05:58:12.786Z,14.30
2023-02-07T06:00:47.213Z,16.20
2023-02-07T06:03:21.152Z,17.42
2023-02-07T06:08:28.388Z,15.72
2023-02-07T06:13:35.822Z,10.82
2023-02-07T06:16:11.050Z,19.55
2023-02-07T06:18:45.082Z,16.90
2023-02-07T06:21:21.320Z,16.42
2023-02-07T06:23:55.524Z,14.85
2023-02-07T06:29:02.435Z,15.23
2023-02-07T06:31:37.028Z,15.63
2023-02-07T06:34:10.920Z,17.23
2023-02-07T06:36:44.909Z,15.80
2023-02-07T06:39:19.300Z,16.95
2023-02-07T06:41:53.111Z,14.30
2023-02-07T06:44:27.407Z,15.95
2023-02-07T06:47:01.445Z,14.93
2023-02-07T06:49:36.732Z,15.13
2023-02-07T06:52:10.878Z,16.17
2023-02-07T06:54:45.401Z,15.68
2023-02-07T06:57:19.435Z,15.30
2023-02-07T06:59:53.560Z,14.93
2023-02-07T07:02:27.209Z,14.90
2023-02-07T07:05:01.448Z,14.93
2023-02-07T07:07:36.004Z,13.58
2023-02-07T07:10:10.679Z,15.25
2023-02-07T07:12:44.701Z,15.25
2023-02-07T07:15:19.606Z,14.78
2023-02-07T07:20:26.229Z,14.18
2023-02-07T07:22:59.896Z,14.90
2023-02-07T07:25:34.123Z,16.40
2023-02-07T07:28:08.000Z,14.30
2023-02-07T07:30:41.998Z,12.05
2023-02-07T07:35:48.977Z,13.78
2023-02-07T07:38:22.892Z,15.45
2023-02-07T07:40:57.631Z,14.13
2023-02-07T07:43:31.200Z,14.43
2023-02-07T07:46:07.637Z,17.32
2023-02-07T07:48:41.874Z,13.70
2023-02-07T07:51:15.974Z,15.58
2023-02-07T07:53:50.430Z,13.32
2023-02-07T07:58:58.560Z,14.20
2023-02-07T08:01:32.444Z,13.80
2023-02-07T08:04:07.697Z,15.65
2023-02-07T08:06:41.552Z,15.43
2023-02-07T08:09:15.824Z,15.45
2023-02-07T08:11:49.797Z,15.95
2023-02-07T08:16:56.544Z,15.90
2023-02-07T08:22:03.451Z,14.68
2023-02-07T08:24:37.465Z,15.15
2023-02-07T08:27:11.575Z,16.70
2023-02-07T08:29:46.419Z,16.23
2023-02-07T08:32:21.030Z,18.75
2023-02-07T08:34:56.285Z,15.53
2023-02-07T08:37:30.395Z,15.85
2023-02-07T08:40:07.264Z,16.80
2023-02-07T08:42:42.545Z,15.72
2023-02-07T08:45:17.961Z,16.12
2023-02-07T08:47:52.069Z,13.35
2023-02-07T08:50:25.953Z,14.98
2023-02-07T08:52:59.828Z,15.30
2023-02-07T08:55:34.029Z,15.00
2023-02-07T08:58:07.877Z,14.68
2023-02-07T09:00:44.078Z,14.45
2023-02-07T09:03:17.800Z,14.98
2023-02-07T09:05:51.474Z,15.83
2023-02-07T09:08:25.823Z,15.05
2023-02-07T09:10:59.730Z,15.88
2023-02-07T09:16:07.529Z,12.77
2023-02-07T09:18:43.353Z,14.90
2023-02-07T09:21:18.517Z,13.68
2023-02-07T09:23:52.337Z,15.63
2023-02-07T09:26:30.969Z,14.07
2023-02-07T09:29:05.446Z,15.20
2023-02-07T09:31:40.102Z,13.40
2023-02-07T09:34:14.340Z,15.28
2023-02-07T09:36:49.922Z,15.60
2023-02-07T09:39:24.406Z,14.83
2023-02-07T09:42:24.254Z,15.65
2023-02-07T09:45:03.136Z,14.10
2023-02-07T09:47:39.445Z,13.50
2023-02-07T09:50:24.064Z,13.40
2023-02-07T09:53:18.741Z,14.60
2023-02-07T09:56:02.548Z,13.62
2023-02-07T09:58:50.095Z,13.10
2023-02-07T10:01:31.333Z,12.85
2023-02-07T10:04:26.601Z,13.80
2023-02-07T10:07:02.089Z,13.55
2023-02-07T10:09:42.441Z,13.80
2023-02-07T10:12:51.155Z,13.10
2023-02-07T10:15:35.803Z,13.03
2023-02-07T10:18:36.372Z,12.82
2023-02-07T10:21:26.133Z,12.90
2023-02-07T10:24:35.837Z,12.07
2023-02-07T10:27:15.507Z,12.13
2023-02-07T10:30:18.278Z,12.35
2023-02-07T10:32:53.412Z,14.18
2023-02-07T10:35:39.737Z,14.10
2023-02-07T10:38:42.370Z,12.05
2023-02-07T10:41:23.451Z,12.20
2023-02-07T10:43:57.486Z,12.05
2023-02-07T10:46:31.322Z,12.65
2023-02-07T10:49:05.230Z,12.55
2023-02-07T10:51:44.421Z,11.48
2023-02-07T10:54:23.066Z,13.55
2023-02-07T10:57:03.009Z,12.20
2023-02-07T10:59:49.247Z,11.15
2023-02-07T11:02:50.060Z,12.23
2023-02-07T11:05:27.579Z,13.75
2023-02-07T11:08:10.156Z,12.88
2023-02-07T11:10:46.273Z,14.97
2023-02-07T11:13:24.494Z,16.40
2023-02-07T11:16:10.256Z,15.80
2023-02-07T11:18:57.636Z,14.03
2023-02-07T11:21:46.963Z,14.10
2023-02-07T11:24:30.015Z,14.85
2023-02-07T11:27:13.228Z,13.78
2023-02-07T11:30:00.639Z,14.47
2023-02-07T11:32:36.635Z,13.43
2023-02-07T11:35:11.745Z,12.90
2023-02-07T11:37:50.185Z,12.63
2023-02-07T11:40:34.469Z,12.43
2023-02-07T11:43:25.473Z,12.85
2023-02-07T11:46:09.223Z,12.95
2023-02-07T11:48:43.570Z,12.28
2023-02-07T11:53:58.493Z,10.75
2023-02-07T11:56:37.059Z,8.50
2023-02-07T11:59:26.851Z,8.93
2023-02-07T12:02:25.872Z,10.85
2023-02-07T12:05:19.813Z,10.60
2023-02-07T12:08:04.032Z,9.95
2023-02-07T12:10:41.187Z,9.88
2023-02-07T12:13:38.851Z,8.43
2023-02-07T12:16:17.588Z,8.33
2023-02-07T12:18:56.940Z,10.55
2023-02-07T12:21:58.755Z,9.05
2023-02-07T12:24:48.620Z,8.30
2023-02-07T12:27:26.276Z,8.60
2023-02-07T12:30:30.914Z,9.88
2023-02-07T12:33:31.937Z,9.40
2023-02-07T12:36:19.203Z,9.40
2023-02-07T12:39:18.233Z,8.35
2023-02-07T12:42:02.759Z,9.25
2023-02-07T12:44:41.243Z,8.73
2023-02-07T12:47:56.038Z,9.25
2023-02-07T12:50:57.896Z,9.90
2023-02-07T12:53:37.099Z,8.48
2023-02-07T12:56:24.563Z,10.72
2023-02-07T12:59:24.145Z,9.75
2023-02-07T13:02:37.426Z,11.83
2023-02-07T13:05:35.256Z,10.28
2023-02-07T13:08:36.462Z,8.23
2023-02-07T13:11:24.613Z,10.90
2023-02-07T13:14:36.525Z,12.35
2023-02-07T13:17:18.315Z,9.58
2023-02-07T13:20:13.261Z,9.53
2023-02-07T13:23:03.848Z,9.33
2023-02-07T13:25:41.891Z,10.38
2023-02-07T13:28:26.907Z,9.40
2023-02-07T13:31:01.946Z,9.15
2023-02-07T13:33:39.583Z,8.88
2023-02-07T13:36:18.592Z,9.90
2023-02-07T13:39:36.783Z,10.45
2023-02-07T13:42:43.541Z,8.88
2023-02-07T13:45:42.460Z,10.30
2023-02-07T13:48:29.365Z,9.40
2023-02-07T13:51:24.538Z,11.40
2023-02-07T13:57:21.802Z,12.18
2023-02-07T14:00:16.735Z,10.08
2023-02-07T14:02:54.928Z,12.13
2023-02-07T14:05:33.076Z,11.03
2023-02-07T14:08:22.433Z,9.85
2023-02-07T14:11:01.641Z,11.55
2023-02-07T14:13:37.195Z,12.95
2023-02-07T14:16:15.288Z,13.38
2023-02-07T14:18:55.806Z,10.68
2023-02-07T14:21:36.189Z,10.32
2023-02-07T14:24:21.870Z,13.00
2023-02-07T14:27:01.067Z,12.50
2023-02-07T14:29:55.205Z,8.95
2023-02-07T14:33:06.715Z,9.88
2023-02-07T14:36:08.743Z,10.35
2023-02-07T14:39:09.266Z,10.28
2023-02-07T14:41:44.945Z,10.95
2023-02-07T14:44:37.035Z,10.98
2023-02-07T14:47:18.285Z,11.18
2023-02-07T14:49:55.432Z,10.03
2023-02-07T14:52:35.915Z,10.48
2023-02-07T14:55:20.037Z,11.45
2023-02-07T14:58:08.519Z,11.43
2023-02-07T15:00:51.732Z,9.93
2023-02-07T15:03:25.568Z,11.88
2023-02-07T15:08:38.106Z,11.57
2023-02-07T15:11:13.956Z,11.40
2023-02-07T15:13:50.152Z,10.98
2023-02-07T15:16:37.147Z,11.15
2023-02-07T15:19:38.799Z,11.12
2023-02-07T15:22:25.419Z,10.08
2023-02-07T15:24:52.572Z,13.22
2023-02-07T15:27:29.705Z,12.58
2023-02-07T15:30:08.141Z,11.03
2023-02-07T15:32:49.814Z,11.00
2023-02-07T15:35:30.191Z,10.90
2023-02-07T15:38:20.716Z,10.82
2023-02-07T15:40:57.639Z,10.30
2023-02-07T15:43:36.597Z,10.13
2023-02-07T15:46:13.494Z,11.33
2023-02-07T15:48:58.400Z,15.58
2023-02-07T15:51:34.143Z,11.10
2023-02-07T15:54:08.478Z,11.60
2023-02-07T15:56:42.367Z,11.57
2023-02-07T16:01:57.766Z,10.93
2023-02-07T16:04:33.233Z,8.98
2023-02-07T16:07:11.372Z,10.15
2023-02-07T16:09:47.611Z,10.88
2023-02-07T16:12:46.112Z,11.35
2023-02-07T16:15:32.984Z,11.15
2023-02-07T16:18:07.998Z,10.13
2023-02-07T16:20:43.684Z,13.10
2023-02-07T16:23:17.471Z,10.35
2023-02-07T16:25:51.416Z,13.05
2023-02-07T16:28:25.520Z,11.10
2023-02-07T16:33:34.639Z,12.43
2023-02-07T16:36:14.672Z,11.35
2023-02-07T16:38:48.452Z,11.93
2023-02-07T16:41:34.411Z,11.75
2023-02-07T16:44:17.556Z,12.75
2023-02-07T16:46:51.615Z,12.80
2023-02-07T16:49:28.227Z,11.88
2023-02-07T16:52:02.324Z,13.32
2023-02-07T16:54:36.243Z,13.05
2023-02-07T17:02:19.369Z,13.55
2023-02-07T17:04:53.231Z,14.03
2023-02-07T17:07:27.136Z,14.60
2023-02-07T17:10:01.418Z,14.03
2023-02-07T17:12:37.178Z,13.93
2023-02-07T17:15:12.483Z,13.80
2023-02-07T17:17:46.416Z,12.88
2023-02-07T17:20:29.443Z,12.53
2023-02-07T17:23:03.319Z,12.90
2023-02-07T17:25:37.983Z,12.37
2023-02-07T17:28:18.276Z,13.00
2023-02-07T17:30:52.537Z,14.45
2023-02-07T17:33:26.485Z,14.18
2023-02-07T17:38:33.115Z,13.45
2023-02-07T17:43:41.947Z,13.55
2023-02-07T17:46:25.687Z,13.32
2023-02-07T17:48:59.934Z,13.65
2023-02-07T17:51:34.315Z,12.58
2023-02-07T17:56:41.794Z,10.30
2023-02-07T17:59:24.398Z,14.63
2023-02-07T18:01:58.438Z,15.68
2023-02-07T18:04:32.473Z,17.40
2023-02-07T18:07:07.021Z,15.25
2023-02-07T18:09:41.066Z,17.25
2023-02-07T18:14:48.869Z,15.30
2023-02-07T18:17:25.259Z,13.43
2023-02-07T18:19:59.107Z,14.45
2023-02-07T18:22:33.236Z,14.40
2023-02-07T18:25:07.929Z,13.75
2023-02-07T18:27:42.080Z,15.30
2023-02-07T18:30:17.064Z,15.50
2023-02-07T18:32:51.537Z,15.00
2023-02-07T18:35:25.491Z,13.85
2023-02-07T18:38:00.429Z,14.73
2023-02-07T18:40:34.922Z,15.30
2023-02-07T18:45:42.726Z,19.75
2023-02-07T18:48:16.695Z,18.75
2023-02-07T18:50:50.551Z,19.42
2023-02-07T18:53:25.423Z,19.50
2023-02-07T18:56:06.113Z,16.97
2023-02-07T18:58:40.329Z,15.93
2023-02-07T19:01:20.481Z,15.32
2023-02-07T19:03:56.525Z,12.93
2023-02-07T19:06:33.542Z,15.40
2023-02-07T19:09:11.687Z,16.37
2023-02-07T19:11:46.428Z,16.17
2023-02-07T19:14:25.001Z,15.45
2023-02-07T19:16:59.473Z,17.90
2023-02-07T19:19:34.579Z,16.05
2023-02-07T19:22:08.468Z,13.88
2023-02-07T19:24:42.930Z,16.80
2023-02-07T19:27:16.998Z,14.40
2023-02-07T19:32:24.377Z,15.80
2023-02-07T19:37:31.227Z,13.60
2023-02-07T19:40:05.515Z,14.35
2023-02-07T19:42:39.754Z,16.50
2023-02-07T19:45:13.802Z,14.35
2023-02-07T19:47:49.244Z,15.08
2023-02-07T19:50:23.882Z,16.80
2023-02-07T19:52:57.942Z,17.75
2023-02-07T19:55:31.983Z,15.48
2023-02-07T19:58:06.857Z,15.65
2023-02-07T20:00:43.217Z,14.63
2023-02-07T20:03:17.139Z,15.40
2023-02-07T20:05:53.285Z,15.45
2023-02-07T20:08:28.112Z,14.87
2023-02-07T20:11:07.731Z,14.63
2023-02-07T20:13:44.952Z,14.93
2023-02-07T20:16:25.746Z,15.15
2023-02-07T20:18:59.734Z,14.78
2023-02-07T20:21:34.816Z,14.95
2023-02-07T20:24:10.336Z,15.25
2023-02-07T20:26:46.701Z,14.38
2023-02-07T20:29:23.298Z,14.58
2023-02-07T20:31:57.476Z,14.00
2023-02-07T20:34:31.368Z,12.73
2023-02-07T20:37:05.514Z,13.80
2023-02-07T20:42:12.539Z,13.70
2023-02-07T20:47:19.445Z,13.60
2023-02-07T20:49:54.154Z,15.20
2023-02-07T20:52:29.893Z,15.68
2023-02-07T20:55:04.767Z,14.38
2023-02-07T20:57:38.723Z,15.80
2023-02-07T21:00:14.148Z,18.98
2023-02-07T21:02:48.586Z,15.68
2023-02-07T21:05:22.391Z,15.20
2023-02-07T21:10:29.980Z,13.87
2023-02-07T21:13:04.321Z,16.25
2023-02-07T21:15:39.300Z,16.77
2023-02-07T21:18:13.218Z,17.55
2023-02-07T21:20:47.885Z,16.67
2023-02-07T21:23:22.177Z,16.00
2023-02-07T21:25:56.456Z,13.60
2023-02-07T21:28:30.472Z,14.35
2023-02-07T21:31:11.450Z,13.55
2023-02-07T21:33:45.836Z,13.55
2023-02-07T21:36:23.990Z,13.45
2023-02-07T21:39:00.370Z,13.53
2023-02-07T21:41:34.565Z,13.48
2023-02-07T21:44:08.627Z,14.47
2023-02-07T21:46:46.419Z,13.05
2023-02-07T21:49:21.209Z,14.20
2023-02-07T21:51:55.409Z,14.18
2023-02-07T21:54:29.074Z,13.98
2023-02-07T21:57:03.045Z,12.95
2023-02-07T21:59:38.719Z,13.28
2023-02-07T22:02:15.942Z,13.50
2023-02-07T22:04:50.497Z,12.47
2023-02-07T22:07:24.717Z,13.72
2023-02-07T22:09:58.773Z,14.28
2023-02-07T22:12:32.939Z,13.60
2023-02-07T22:15:07.606Z,12.95
2023-02-07T22:17:41.646Z,13.90
2023-02-07T22:20:15.957Z,13.50
2023-02-07T22:22:49.556Z,12.20
2023-02-07T22:27:56.934Z,12.45
2023-02-07T22:30:31.228Z,14.13
2023-02-07T22:33:07.456Z,14.05
2023-02-07T22:35:44.024Z,13.25
2023-02-07T22:38:18.401Z,13.28
2023-02-07T22:40:52.794Z,13.18
2023-02-07T22:43:26.467Z,12.78
2023-02-07T22:46:06.528Z,11.73
2023-02-07T22:48:40.620Z,12.93
2023-02-07T22:51:36.223Z,13.70
2023-02-07T22:54:15.429Z,13.50
2023-02-07T22:56:49.650Z,13.83
2023-02-07T23:01:56.486Z,13.68
2023-02-07T23:04:30.578Z,13.78
2023-02-07T23:07:04.589Z,11.70
2023-02-07T23:09:38.441Z,13.50
2023-02-07T23:12:12.594Z,14.47
2023-02-07T23:14:46.765Z,12.73
2023-02-07T23:17:21.237Z,13.85
2023-02-07T23:19:56.483Z,13.20
2023-02-07T23:22:30.386Z,11.57
2023-02-07T23:25:05.008Z,13.25
2023-02-07T23:27:39.029Z,12.47
2023-02-07T23:30:15.479Z,13.38
2023-02-07T23:32:49.328Z,12.60
2023-02-07T23:35:23.436Z,13.75
2023-02-07T23:37:58.294Z,13.30
2023-02-07T23:40:33.157Z,13.80
2023-02-07T23:43:08.240Z,13.22
2023-02-07T23:45:42.004Z,12.78
2023-02-07T23:48:15.913Z,13.57
2023-02-07T23:50:58.789Z,13.00
2023-02-07T23:53:33.205Z,12.95
2023-02-07T23:56:08.557Z,12.35
2023-02-07T23:58:42.750Z,12.15
